createdAt,value
2023-01-02T00:01:21.074Z,1.12
2023-01-02T00:03:49.637Z,1.13
2023-01-02T00:06:18.900Z,1.19
2023-01-02T00:08:48.698Z,1.10
2023-01-02T00:11:17.259Z,1.10
2023-01-02T00:13:45.699Z,1.08
2023-01-02T00:16:14.087Z,1.09
2023-01-02T00:18:42.499Z,1.07
2023-01-02T00:21:11.055Z,1.00
2023-01-02T00:23:39.554Z,0.93
2023-01-02T00:26:09.276Z,0.83
2023-01-02T00:28:37.753Z,0.82
2023-01-02T00:31:09.907Z,0.81
2023-01-02T00:33:38.814Z,0.81
2023-01-02T00:36:08.444Z,0.80
2023-01-02T00:38:38.421Z,0.76
2023-01-02T00:41:09.098Z,0.75
2023-01-02T00:43:37.919Z,0.73
2023-01-02T00:46:11.522Z,0.71
2023-01-02T00:48:41.644Z,0.65
2023-01-02T00:51:10.255Z,0.66
2023-01-02T00:53:38.823Z,0.60
2023-01-02T00:56:09.248Z,0.57
2023-01-02T00:58:37.761Z,0.51
2023-01-02T01:01:06.449Z,0.52
2023-01-02T01:03:35.235Z,0.47
2023-01-02T01:06:08.563Z,0.44
2023-01-02T01:08:37.666Z,0.38
2023-01-02T01:11:09.250Z,0.40
2023-01-02T01:13:37.986Z,0.45
2023-01-02T01:16:07.524Z,0.43
2023-01-02T01:18:36.456Z,0.32
2023-01-02T01:21:08.637Z,0.36
2023-01-02T01:23:37.275Z,0.28
2023-01-02T01:26:06.669Z,0.27
2023-01-02T01:28:36.841Z,0.28
2023-01-02T01:31:06.068Z,0.32
2023-01-02T01:33:35.092Z,0.25
2023-01-02T01:36:04.049Z,0.27
2023-01-02T01:38:32.960Z,0.24
2023-01-02T01:41:02.079Z,0.23
2023-01-02T01:43:40.230Z,0.28
2023-01-02T01:46:13.463Z,0.20
2023-01-02T01:48:41.834Z,0.26
2023-01-02T01:51:10.252Z,0.21
2023-01-02T01:53:39.916Z,0.24
2023-01-02T01:56:09.714Z,0.24
2023-01-02T01:58:43.305Z,0.21
2023-01-02T02:01:17.863Z,0.23
2023-01-02T02:03:48.432Z,0.23
2023-01-02T02:06:17.958Z,0.26
2023-01-02T02:08:51.065Z,0.23
2023-01-02T02:11:19.657Z,0.26
2023-01-02T02:13:50.311Z,0.24
2023-01-02T02:16:25.375Z,0.25
2023-01-02T02:19:25.504Z,0.22
2023-01-02T02:22:08.650Z,0.31
2023-01-02T02:25:24.112Z,0.25
2023-01-02T02:28:17.672Z,0.32
2023-01-02T02:30:52.029Z,0.31
2023-01-02T02:33:31.999Z,0.25
2023-01-02T02:36:05.355Z,0.31
2023-01-02T02:38:42.664Z,0.28
2023-01-02T02:41:19.217Z,0.34
2023-01-02T02:43:52.740Z,0.25
2023-01-02T02:46:27.292Z,0.33
2023-01-02T02:48:59.569Z,0.27
2023-01-02T02:51:32.050Z,0.25
2023-01-02T02:54:04.143Z,0.20
2023-01-02T02:56:33.202Z,0.21
2023-01-02T02:59:01.613Z,0.20
2023-01-02T03:01:31.858Z,0.13
2023-01-02T03:04:00.431Z,0.14
2023-01-02T03:06:47.026Z,0.07
2023-01-02T03:09:20.227Z,0.03
2023-01-02T03:11:55.306Z,-0.03
2023-01-02T03:14:31.566Z,-0.04
2023-01-02T03:17:04.025Z,-0.08
2023-01-02T03:19:38.487Z,-0.02
2023-01-02T03:22:10.363Z,-0.06
2023-01-02T03:24:39.367Z,-0.08
2023-01-02T03:27:11.114Z,-0.02
2023-01-02T03:29:43.974Z,-0.09
2023-01-02T03:32:15.418Z,-0.09
2023-01-02T03:34:45.067Z,-0.11
2023-01-02T03:37:15.927Z,-0.08
2023-01-02T03:39:47.458Z,-0.15
2023-01-02T03:42:18.278Z,-0.15
2023-01-02T03:44:50.729Z,-0.13
2023-01-02T03:47:26.169Z,-0.22
2023-01-02T03:49:56.406Z,-0.27
2023-01-02T03:52:26.247Z,-0.30
2023-01-02T03:54:57.517Z,-0.34
2023-01-02T03:57:32.415Z,-0.41
2023-01-02T04:00:05.586Z,-0.44
2023-01-02T04:02:47.445Z,-0.56
2023-01-02T04:05:20.047Z,-0.57
2023-01-02T04:07:52.635Z,-0.61
2023-01-02T04:10:21.272Z,-0.64
2023-01-02T04:12:52.899Z,-0.67
2023-01-02T04:15:23.794Z,-0.68
2023-01-02T04:17:56.407Z,-0.87
2023-01-02T04:20:29.201Z,-0.73
2023-01-02T04:23:03.387Z,-0.75
2023-01-02T04:25:39.471Z,-0.81
2023-01-02T04:28:11.750Z,-0.91
2023-01-02T04:30:43.606Z,-0.90
2023-01-02T04:33:13.886Z,-0.94
2023-01-02T04:35:42.517Z,-1.00
2023-01-02T04:38:12.457Z,-1.02
2023-01-02T04:40:41.146Z,-1.00
2023-01-02T04:43:17.049Z,-1.13
2023-01-02T04:45:45.529Z,-1.11
2023-01-02T04:48:15.336Z,-1.22
2023-01-02T04:50:45.110Z,-1.22
2023-01-02T04:53:13.727Z,-1.27
2023-01-02T04:55:42.401Z,-1.36
2023-01-02T04:58:10.818Z,-1.26
2023-01-02T05:00:39.571Z,-1.29
2023-01-02T05:03:08.121Z,-1.42
2023-01-02T05:05:38.042Z,-1.41
2023-01-02T05:08:12.090Z,-1.41
2023-01-02T05:10:44.382Z,-1.55
2023-01-02T05:13:12.775Z,-1.50
2023-01-02T05:15:41.288Z,-1.48
2023-01-02T05:18:11.170Z,-1.44
2023-01-02T05:20:40.958Z,-1.48
2023-01-02T05:23:29.511Z,-1.47
2023-01-02T05:25:57.947Z,-1.38
2023-01-02T05:28:26.475Z,-1.41
2023-01-02T05:30:54.907Z,-1.45
2023-01-02T05:33:23.318Z,-1.43
2023-01-02T05:35:53.072Z,-1.50
2023-01-02T05:38:21.455Z,-1.56
2023-01-02T05:40:50.036Z,-1.64
2023-01-02T05:43:18.432Z,-1.58
2023-01-02T05:45:46.806Z,-1.63
2023-01-02T05:48:15.189Z,-1.61
2023-01-02T05:50:43.593Z,-1.65
2023-01-02T05:53:13.425Z,-1.65
2023-01-02T05:55:41.844Z,-1.72
2023-01-02T05:58:10.242Z,-1.76
2023-01-02T06:00:38.630Z,-1.66
2023-01-02T06:03:07.143Z,-1.72
2023-01-02T06:05:36.062Z,-1.70
2023-01-02T06:08:04.480Z,-1.72
2023-01-02T06:10:34.256Z,-1.75
2023-01-02T06:13:02.698Z,-1.77
2023-01-02T06:15:31.105Z,-1.79
2023-01-02T06:18:00.959Z,-1.80
2023-01-02T06:20:29.480Z,-1.72
2023-01-02T06:22:57.905Z,-1.72
2023-01-02T06:25:26.347Z,-1.63
2023-01-02T06:27:56.301Z,-1.69
2023-01-02T06:30:24.801Z,-1.72
2023-01-02T06:32:53.310Z,-1.68
2023-01-02T06:35:21.738Z,-1.73
2023-01-02T06:37:50.160Z,-1.69
2023-01-02T06:40:18.762Z,-1.74
2023-01-02T06:42:47.193Z,-1.69
2023-01-02T06:45:17.134Z,-1.69
2023-01-02T06:47:45.593Z,-1.76
2023-01-02T06:50:13.993Z,-1.72
2023-01-02T06:52:42.351Z,-1.70
2023-01-02T06:55:11.001Z,-1.68
2023-01-02T06:57:40.501Z,-1.68
2023-01-02T07:00:10.378Z,-1.72
2023-01-02T07:02:42.269Z,-1.70
2023-01-02T07:05:11.359Z,-1.67
2023-01-02T07:07:39.849Z,-1.72
2023-01-02T07:10:08.877Z,-1.71
2023-01-02T07:12:37.776Z,-1.66
2023-01-02T07:15:07.133Z,-1.65
2023-01-02T07:17:35.596Z,-1.67
2023-01-02T07:20:07.660Z,-1.67
2023-01-02T07:22:36.022Z,-1.65
2023-01-02T07:25:04.648Z,-1.69
2023-01-02T07:27:33.631Z,-1.66
2023-01-02T07:30:02.180Z,-1.63
2023-01-02T07:32:32.602Z,-1.64
2023-01-02T07:35:00.922Z,-1.70
2023-01-02T07:37:30.731Z,-1.66
2023-01-02T07:39:59.097Z,-1.66
2023-01-02T07:42:27.473Z,-1.67
2023-01-02T07:44:56.301Z,-1.64
2023-01-02T07:47:25.807Z,-1.61
2023-01-02T07:49:54.196Z,-1.63
2023-01-02T07:52:22.712Z,-1.63
2023-01-02T07:54:53.336Z,-1.67
2023-01-02T07:57:21.746Z,-1.62
2023-01-02T07:59:53.137Z,-1.59
2023-01-02T08:02:21.804Z,-1.65
2023-01-02T08:04:50.361Z,-1.56
2023-01-02T08:07:19.188Z,-1.58
2023-01-02T08:09:47.579Z,-1.55
2023-01-02T08:12:17.466Z,-1.49
2023-01-02T08:14:45.956Z,-1.52
2023-01-02T08:17:14.436Z,-1.47
2023-01-02T08:19:42.796Z,-1.50
2023-01-02T08:22:11.222Z,-1.47
2023-01-02T08:24:39.635Z,-1.41
2023-01-02T08:27:07.937Z,-1.49
2023-01-02T08:29:37.664Z,-1.47
2023-01-02T08:32:06.765Z,-1.43
2023-01-02T08:34:37.119Z,-1.40
2023-01-02T08:37:05.569Z,-1.38
2023-01-02T08:39:33.977Z,-1.35
2023-01-02T08:42:03.144Z,-1.39
2023-01-02T08:44:31.525Z,-1.37
2023-01-02T08:47:01.341Z,-1.35
2023-01-02T08:49:29.700Z,-1.37
2023-01-02T08:51:59.095Z,-1.34
2023-01-02T08:54:27.614Z,-1.32
2023-01-02T08:56:56.038Z,-1.32
2023-01-02T08:59:25.392Z,-1.32
2023-01-02T09:01:54.508Z,-1.29
2023-01-02T09:04:24.442Z,-1.36
2023-01-02T09:06:52.857Z,-1.28
2023-01-02T09:09:21.243Z,-1.26
2023-01-02T09:11:51.301Z,-1.29
2023-01-02T09:14:20.966Z,-1.27
2023-01-02T09:16:50.414Z,-1.25
2023-01-02T09:19:19.245Z,-1.29
2023-01-02T09:21:49.035Z,-1.22
2023-01-02T09:24:17.427Z,-1.18
2023-01-02T09:26:45.954Z,-1.22
2023-01-02T09:29:14.892Z,-1.20
2023-01-02T09:31:43.498Z,-1.18
2023-01-02T09:34:11.921Z,-1.20
2023-01-02T09:36:40.555Z,-1.24
2023-01-02T09:39:12.755Z,-1.14
2023-01-02T09:41:42.701Z,-1.08
2023-01-02T09:44:16.127Z,-1.17
2023-01-02T09:46:49.295Z,-1.12
2023-01-02T09:49:21.496Z,-1.09
2023-01-02T09:51:50.179Z,-1.07
2023-01-02T09:54:25.025Z,-1.11
2023-01-02T09:56:55.285Z,-1.03
2023-01-02T09:59:28.904Z,-1.03
2023-01-02T10:02:08.886Z,-1.10
2023-01-02T10:04:50.157Z,-1.03
2023-01-02T10:07:22.252Z,-1.07
2023-01-02T10:09:55.644Z,-1.05
2023-01-02T10:12:28.091Z,-1.03
2023-01-02T10:14:58.499Z,-1.04
2023-01-02T10:17:28.235Z,-1.02
2023-01-02T10:19:59.929Z,-0.98
2023-01-02T10:22:33.754Z,-1.00
2023-01-02T10:25:08.226Z,-1.01
2023-01-02T10:27:40.079Z,-0.95
2023-01-02T10:30:18.885Z,-1.00
2023-01-02T10:32:51.443Z,-0.91
2023-01-02T10:35:31.190Z,-0.95
2023-01-02T10:37:59.631Z,-0.94
2023-01-02T10:40:30.467Z,-0.91
2023-01-02T10:43:00.452Z,-0.94
2023-01-02T10:45:28.911Z,-0.93
2023-01-02T10:47:57.578Z,-0.98
2023-01-02T10:50:29.129Z,-1.03
2023-01-02T10:53:08.432Z,-1.06
2023-01-02T10:55:40.548Z,-1.06
2023-01-02T10:58:16.775Z,-1.09
2023-01-02T11:00:45.394Z,-1.10
2023-01-02T11:03:17.050Z,-1.12
2023-01-02T11:05:48.144Z,-1.20
2023-01-02T11:08:19.909Z,-1.19
2023-01-02T11:10:50.552Z,-1.18
2023-01-02T11:13:23.591Z,-1.20
2023-01-02T11:15:55.823Z,-1.23
2023-01-02T11:18:26.540Z,-1.26
2023-01-02T11:20:57.143Z,-1.30
2023-01-02T11:23:27.326Z,-1.31
2023-01-02T11:25:57.660Z,-1.30
2023-01-02T11:28:29.192Z,-1.35
2023-01-02T11:31:03.700Z,-1.42
2023-01-02T11:33:34.506Z,-1.37
2023-01-02T11:36:17.384Z,-1.37
2023-01-02T11:38:47.881Z,-1.41
2023-01-02T11:41:45.164Z,-1.45
2023-01-02T11:44:20.458Z,-1.50
2023-01-02T11:46:50.188Z,-1.51
2023-01-02T11:49:21.132Z,-1.54
2023-01-02T11:51:55.497Z,-1.56
2023-01-02T11:54:26.793Z,-1.59
2023-01-02T11:56:57.219Z,-1.60
2023-01-02T11:59:28.858Z,-1.61
2023-01-02T12:02:02.162Z,-1.59
2023-01-02T12:04:31.446Z,-1.64
2023-01-02T12:07:09.788Z,-1.61
2023-01-02T12:09:47.404Z,-1.61
2023-01-02T12:12:29.731Z,-1.65
2023-01-02T12:15:25.074Z,-1.67
2023-01-02T12:17:59.884Z,-1.68
2023-01-02T12:20:30.681Z,-1.72
2023-01-02T12:23:38.037Z,-1.70
2023-01-02T12:26:10.586Z,-1.74
2023-01-02T12:28:52.962Z,-1.74
2023-01-02T12:31:40.127Z,-1.79
2023-01-02T12:34:19.256Z,-1.82
2023-01-02T12:36:59.517Z,-1.83
2023-01-02T12:39:50.463Z,-1.81
2023-01-02T12:42:30.633Z,-1.89
2023-01-02T12:45:00.495Z,-1.85
2023-01-02T12:47:36.427Z,-1.92
2023-01-02T12:50:30.280Z,-1.95
2023-01-02T12:53:10.046Z,-1.97
2023-01-02T12:55:47.659Z,-1.96
2023-01-02T12:58:37.418Z,-2.01
2023-01-02T13:01:15.020Z,-2.07
2023-01-02T13:03:52.221Z,-2.06
2023-01-02T13:06:44.039Z,-2.14
2023-01-02T13:09:20.092Z,-2.14
2023-01-02T13:11:57.821Z,-2.13
2023-01-02T13:14:28.483Z,-2.14
2023-01-02T13:17:04.417Z,-2.20
2023-01-02T13:19:37.873Z,-2.24
2023-01-02T13:22:13.094Z,-2.28
2023-01-02T13:24:41.467Z,-2.23
2023-01-02T13:27:11.334Z,-2.24
2023-01-02T13:29:44.413Z,-2.28
2023-01-02T13:32:15.342Z,-2.37
2023-01-02T13:34:51.114Z,-2.33
2023-01-02T13:37:22.984Z,-2.32
2023-01-02T13:39:53.575Z,-2.41
2023-01-02T13:42:42.653Z,-2.41
2023-01-02T13:45:13.971Z,-2.46
2023-01-02T13:47:50.600Z,-2.45
2023-01-02T13:50:23.052Z,-2.46
2023-01-02T13:53:02.347Z,-2.44
2023-01-02T13:55:32.818Z,-2.51
2023-01-02T13:58:27.011Z,-2.44
2023-01-02T14:00:57.581Z,-2.56
2023-01-02T14:03:38.011Z,-2.56
2023-01-02T14:06:27.947Z,-2.50
2023-01-02T14:09:11.549Z,-2.56
2023-01-02T14:11:55.289Z,-2.59
2023-01-02T14:14:29.890Z,-2.60
2023-01-02T14:17:12.481Z,-2.57
2023-01-02T14:19:42.509Z,-2.57
2023-01-02T14:22:14.144Z,-2.59
2023-01-02T14:24:44.307Z,-2.62
2023-01-02T14:27:24.625Z,-2.67
2023-01-02T14:29:54.530Z,-2.72
2023-01-02T14:32:25.979Z,-2.63
2023-01-02T14:34:57.448Z,-2.78
2023-01-02T14:37:29.847Z,-2.74
2023-01-02T14:39:58.268Z,-2.73
2023-01-02T14:42:47.480Z,-2.81
2023-01-02T14:45:19.620Z,-2.81
2023-01-02T14:47:52.088Z,-2.83
2023-01-02T14:50:24.353Z,-2.90
2023-01-02T14:53:00.927Z,-2.95
2023-01-02T14:55:34.340Z,-2.88
2023-01-02T14:58:07.190Z,-2.90
2023-01-02T15:00:38.976Z,-2.89
2023-01-02T15:03:23.238Z,-2.95
2023-01-02T15:05:57.282Z,-3.03
2023-01-02T15:08:36.013Z,-2.99
2023-01-02T15:11:23.884Z,-3.03
2023-01-02T15:14:04.786Z,-3.02
2023-01-02T15:16:41.605Z,-3.09
2023-01-02T15:19:17.228Z,-3.10
2023-01-02T15:21:47.126Z,-3.08
2023-01-02T15:24:23.443Z,-3.10
2023-01-02T15:26:52.207Z,-3.10
2023-01-02T15:29:25.601Z,-3.08
2023-01-02T15:31:56.151Z,-3.12
2023-01-02T15:34:31.587Z,-3.22
2023-01-02T15:37:03.701Z,-3.20
2023-01-02T15:39:35.129Z,-3.19
2023-01-02T15:42:09.928Z,-3.22
2023-01-02T15:44:57.567Z,-3.19
2023-01-02T15:47:28.561Z,-3.20
2023-01-02T15:49:59.293Z,-3.21
2023-01-02T15:52:32.278Z,-3.28
2023-01-02T15:55:01.191Z,-3.29
2023-01-02T15:57:33.190Z,-3.30
2023-01-02T16:00:02.157Z,-3.22
2023-01-02T16:02:43.457Z,-3.28
2023-01-02T16:05:15.283Z,-3.26
2023-01-02T16:07:50.909Z,-3.33
2023-01-02T16:10:22.263Z,-3.31
2023-01-02T16:12:52.549Z,-3.35
2023-01-02T16:15:23.330Z,-3.35
2023-01-02T16:17:52.240Z,-3.30
2023-01-02T16:20:21.890Z,-3.32
2023-01-02T16:22:53.592Z,-3.35
2023-01-02T16:25:23.449Z,-3.34
2023-01-02T16:27:54.469Z,-3.42
2023-01-02T16:30:32.968Z,-3.41
2023-01-02T16:33:02.831Z,-3.36
2023-01-02T16:35:32.692Z,-3.39
2023-01-02T16:38:05.180Z,-3.38
2023-01-02T16:41:00.269Z,-3.42
2023-01-02T16:43:35.341Z,-3.44
2023-01-02T16:46:05.253Z,-3.46
2023-01-02T16:51:11.988Z,-3.47
2023-01-02T16:53:43.317Z,-3.54
2023-01-02T16:56:11.962Z,-3.59
2023-01-02T16:58:40.809Z,-3.61
2023-01-02T17:01:11.410Z,-3.58
2023-01-02T17:03:39.973Z,-3.64
2023-01-02T17:06:13.366Z,-3.67
2023-01-02T17:08:43.575Z,-3.74
2023-01-02T17:11:14.272Z,-3.66
2023-01-02T17:13:42.653Z,-3.74
2023-01-02T17:16:11.270Z,-3.70
2023-01-02T17:18:39.945Z,-3.69
2023-01-02T17:21:08.618Z,-3.83
2023-01-02T17:23:37.061Z,-3.83
2023-01-02T17:26:07.452Z,-3.85
2023-01-02T17:28:36.836Z,-3.88
2023-01-02T17:31:05.403Z,-3.81
2023-01-02T17:33:33.962Z,-3.86
2023-01-02T17:36:03.071Z,-3.96
2023-01-02T17:38:31.562Z,-3.85
2023-01-02T17:41:01.315Z,-3.87
2023-01-02T17:43:31.305Z,-3.95
2023-01-02T17:46:00.002Z,-3.87
2023-01-02T17:48:30.189Z,-3.94
2023-01-02T17:50:58.640Z,-4.02
2023-01-02T17:53:27.196Z,-4.03
2023-01-02T17:56:21.420Z,-4.08
2023-01-02T17:58:48.888Z,-4.09
2023-01-02T18:01:19.131Z,-4.11
2023-01-02T18:03:47.973Z,-4.09
2023-01-02T18:06:16.945Z,-4.09
2023-01-02T18:08:45.849Z,-4.15
2023-01-02T18:11:16.600Z,-4.14
2023-01-02T18:13:48.760Z,-4.16
2023-01-02T18:16:19.348Z,-4.16
2023-01-02T18:18:47.857Z,-4.17
2023-01-02T18:21:19.393Z,-4.12
2023-01-02T18:23:50.311Z,-4.09
2023-01-02T18:26:20.234Z,-4.24
2023-01-02T18:28:57.106Z,-4.29
2023-01-02T18:31:27.052Z,-4.19
2023-01-02T18:33:56.082Z,-4.22
2023-01-02T18:36:25.803Z,-4.26
2023-01-02T18:39:08.339Z,-4.23
2023-01-02T18:41:40.050Z,-4.24
2023-01-02T18:44:28.862Z,-4.25
2023-01-02T18:47:05.277Z,-4.31
2023-01-02T18:49:40.458Z,-4.26
2023-01-02T18:52:25.215Z,-4.22
2023-01-02T18:54:59.857Z,-4.25
2023-01-02T18:57:32.645Z,-4.23
2023-01-02T19:00:16.401Z,-4.31
2023-01-02T19:02:56.466Z,-4.31
2023-01-02T19:05:27.811Z,-4.33
2023-01-02T19:08:02.677Z,-4.29
2023-01-02T19:10:37.087Z,-4.21
2023-01-02T19:13:07.914Z,-4.20
2023-01-02T19:15:42.971Z,-4.28
2023-01-02T19:18:35.588Z,-4.24
2023-01-02T19:21:12.907Z,-4.29
2023-01-02T19:23:46.706Z,-4.29
2023-01-02T19:26:20.257Z,-4.33
2023-01-02T19:28:55.552Z,-4.38
2023-01-02T19:31:26.384Z,-4.34
2023-01-02T19:33:58.629Z,-4.36
2023-01-02T19:36:36.713Z,-4.34
2023-01-02T19:39:25.634Z,-4.41
2023-01-02T19:42:12.015Z,-4.44
2023-01-02T19:44:41.958Z,-4.35
2023-01-02T19:47:13.947Z,-4.44
2023-01-02T19:49:42.603Z,-4.47
2023-01-02T19:52:11.407Z,-4.48
2023-01-02T19:54:40.393Z,-4.50
2023-01-02T19:57:09.933Z,-4.49
2023-01-02T19:59:43.545Z,-4.47
2023-01-02T20:02:14.701Z,-4.56
2023-01-02T20:04:44.263Z,-4.50
2023-01-02T20:07:12.736Z,-4.56
2023-01-02T20:09:41.214Z,-4.52
2023-01-02T20:12:26.971Z,-4.59
2023-01-02T20:14:55.556Z,-4.61
2023-01-02T20:17:25.326Z,-4.62
2023-01-02T20:19:53.695Z,-4.59
2023-01-02T20:22:22.229Z,-4.57
2023-01-02T20:24:50.629Z,-4.56
2023-01-02T20:27:20.593Z,-4.51
2023-01-02T20:29:49.682Z,-4.58
2023-01-02T20:32:18.227Z,-4.53
2023-01-02T20:34:47.977Z,-4.60
2023-01-02T20:37:21.152Z,-4.56
2023-01-02T20:39:50.091Z,-4.51
2023-01-02T20:42:20.172Z,-4.57
2023-01-02T20:44:48.947Z,-4.43
2023-01-02T20:47:17.399Z,-4.50
2023-01-02T20:49:47.149Z,-4.45
2023-01-02T20:52:15.758Z,-4.44
2023-01-02T20:54:44.454Z,-4.33
2023-01-02T20:57:12.911Z,-4.34
2023-01-02T20:59:41.590Z,-4.42
2023-01-02T21:02:10.163Z,-4.43
2023-01-02T21:04:38.856Z,-4.43
2023-01-02T21:07:08.676Z,-4.41
2023-01-02T21:09:37.109Z,-4.39
2023-01-02T21:12:25.520Z,-4.36
2023-01-02T21:14:55.988Z,-4.31
2023-01-02T21:17:24.353Z,-4.31
2023-01-02T21:19:52.782Z,-4.28
2023-01-02T21:22:23.113Z,-4.34
2023-01-02T21:24:51.645Z,-4.31
2023-01-02T21:27:21.574Z,-4.26
2023-01-02T21:29:50.050Z,-4.28
2023-01-02T21:32:18.708Z,-4.31
2023-01-02T21:34:47.189Z,-4.27
2023-01-02T21:37:15.649Z,-4.21
2023-01-02T21:39:48.325Z,-4.23
2023-01-02T21:42:16.039Z,-4.15
2023-01-02T21:44:44.633Z,-4.23
2023-01-02T21:47:13.068Z,-4.23
2023-01-02T21:49:41.477Z,-4.25
2023-01-02T21:52:10.350Z,-4.18
2023-01-02T21:54:38.748Z,-4.13
2023-01-02T21:57:09.783Z,-4.20
2023-01-02T21:59:38.466Z,-4.18
2023-01-02T22:02:07.201Z,-4.18
2023-01-02T22:04:36.333Z,-4.06
2023-01-02T22:07:30.688Z,-4.18
2023-01-02T22:09:53.783Z,-4.20
2023-01-02T22:12:24.080Z,-4.08
2023-01-02T22:14:52.475Z,-4.09
2023-01-02T22:17:20.901Z,-4.06
2023-01-02T22:19:49.350Z,-3.98
2023-01-02T22:22:17.756Z,-4.01
2023-01-02T22:24:46.447Z,-4.02
2023-01-02T22:27:16.321Z,-4.00
2023-01-02T22:32:36.218Z,-4.07
2023-01-02T22:35:05.905Z,-4.01
2023-01-02T22:37:34.364Z,-3.99
2023-01-02T22:40:02.810Z,-3.97
2023-01-02T22:43:06.378Z,-3.89
2023-01-02T22:45:40.625Z,-3.83
2023-01-02T22:48:15.479Z,-3.88
2023-01-02T22:50:44.125Z,-3.82
2023-01-02T22:53:20.773Z,-3.86
2023-01-02T22:55:49.721Z,-3.89
2023-01-02T22:58:18.606Z,-3.91
2023-01-02T23:00:49.533Z,-3.82
2023-01-02T23:03:18.165Z,-3.83
2023-01-02T23:05:46.590Z,-3.79
2023-01-02T23:08:15.002Z,-3.84
2023-01-02T23:10:43.637Z,-3.82
2023-01-02T23:13:12.204Z,-3.71
2023-01-02T23:16:00.992Z,-3.81
2023-01-02T23:18:56.050Z,-3.74
2023-01-02T23:21:25.624Z,-3.63
2023-01-02T23:23:54.130Z,-3.63
2023-01-02T23:26:24.438Z,-3.60
2023-01-02T23:29:06.426Z,-3.50
2023-01-02T23:31:35.436Z,-3.52
2023-01-02T23:34:05.195Z,-3.52
2023-01-02T23:36:34.061Z,-3.49
2023-01-02T23:39:02.723Z,-3.50
2023-01-02T23:41:31.131Z,-3.41
2023-01-02T23:43:59.409Z,-3.32
2023-01-02T23:46:27.863Z,-3.32
2023-01-02T23:48:56.269Z,-3.33
2023-01-02T23:51:26.494Z,-3.32
2023-01-02T23:53:54.869Z,-3.30
2023-01-02T23:56:25.275Z,-3.38
2023-01-02T23:58:55.646Z,-3.32
